createdAt,value
2018-02-12T00:00:47.558Z,0
2018-02-12T00:01:53.019Z,0
2018-02-12T00:02:58.505Z,0
2018-02-12T00:04:04.343Z,0
2018-02-12T00:05:09.264Z,0
2018-02-12T00:06:14.731Z,0
2018-02-12T00:07:20.162Z,0
2018-02-12T00:08:25.676Z,0
2018-02-12T00:09:31.138Z,0
2018-02-12T00:10:36.617Z,0
2018-02-12T00:11:41.812Z,0
2018-02-12T00:12:47.668Z,0
2018-02-12T00:13:52.589Z,0
2018-02-12T00:14:57.781Z,0
2018-02-12T00:16:03.007Z,0
2018-02-12T00:17:07.899Z,0
2018-02-12T00:18:13.373Z,0
2018-02-12T00:19:19.189Z,0
2018-02-12T00:20:24.370Z,0
2018-02-12T00:21:30.204Z,0
2018-02-12T00:22:35.390Z,0
2018-02-12T00:23:40.570Z,0
2018-02-12T00:24:46.384Z,0
2018-02-12T00:25:51.552Z,0
2018-02-12T00:26:56.743Z,0
2018-02-12T00:28:02.461Z,0
2018-02-12T00:29:07.393Z,0
2018-02-12T00:30:12.009Z,0
2018-02-12T00:31:17.550Z,0
2018-02-12T00:32:22.995Z,0
2018-02-12T00:33:28.992Z,0
2018-02-12T00:34:34.448Z,0
2018-02-12T00:35:39.925Z,0
2018-02-12T00:36:45.686Z,0
2018-02-12T00:37:50.871Z,0
2018-02-12T00:38:56.358Z,0
2018-02-12T00:40:01.888Z,0
2018-02-12T00:41:06.785Z,0
2018-02-12T00:42:12.278Z,0
2018-02-12T00:43:18.233Z,0
2018-02-12T00:44:23.714Z,0
2018-02-12T00:45:28.764Z,0
2018-02-12T00:46:34.239Z,0
2018-02-12T00:47:39.719Z,0
2018-02-12T00:48:45.454Z,0
2018-02-12T00:49:50.939Z,0
2018-02-12T00:50:56.117Z,0
2018-02-12T00:52:01.559Z,0
2018-02-12T00:53:06.740Z,0
2018-02-12T00:54:11.630Z,0
2018-02-12T00:55:16.578Z,0
2018-02-12T00:56:22.045Z,0
2018-02-12T00:57:28.046Z,0
2018-02-12T00:58:33.510Z,0
2018-02-12T00:59:38.982Z,0
2018-02-12T01:00:44.184Z,0
2018-02-12T01:01:49.651Z,0
2018-02-12T01:02:55.121Z,0
2018-02-12T01:04:00.872Z,0
2018-02-12T01:05:06.090Z,0
2018-02-12T01:06:11.569Z,0
2018-02-12T01:07:17.286Z,0
2018-02-12T01:08:22.494Z,0
2018-02-12T01:09:27.814Z,0
2018-02-12T01:10:33.304Z,0
2018-02-12T01:11:38.493Z,0
2018-02-12T01:12:44.207Z,0
2018-02-12T01:13:49.674Z,0
2018-02-12T01:14:55.143Z,0
2018-02-12T01:16:00.970Z,0
2018-02-12T01:17:05.602Z,0
2018-02-12T01:18:11.089Z,0
2018-02-12T01:19:16.285Z,0
2018-02-12T01:20:21.754Z,0
2018-02-12T01:21:26.671Z,0
2018-02-12T01:22:32.131Z,0
2018-02-12T01:23:37.335Z,0
2018-02-12T01:24:43.228Z,0
2018-02-12T01:25:48.416Z,0
2018-02-12T01:26:53.879Z,0
2018-02-12T01:27:59.036Z,0
2018-02-12T01:29:03.919Z,0
2018-02-12T01:30:09.125Z,0
2018-02-12T01:31:14.631Z,0
2018-02-12T01:32:20.118Z,0
2018-02-12T01:33:40.497Z,0
2018-02-12T01:34:45.965Z,0
2018-02-12T01:35:51.449Z,0
2018-02-12T01:36:56.879Z,0
2018-02-12T01:38:02.351Z,0
2018-02-12T01:39:07.560Z,0
2018-02-12T01:40:13.263Z,0
2018-02-12T01:41:18.724Z,0
2018-02-12T01:43:43.918Z,0
2018-02-12T01:44:49.378Z,0
2018-02-12T01:45:55.134Z,0
2018-02-12T01:47:00.596Z,0
2018-02-12T01:48:05.769Z,0
2018-02-12T01:49:11.308Z,0
2018-02-12T01:50:16.511Z,0
2018-02-12T01:51:21.969Z,0
2018-02-12T01:52:27.433Z,0
2018-02-12T01:53:32.890Z,0
2018-02-12T01:54:38.345Z,0
2018-02-12T01:55:43.533Z,0
2018-02-12T01:56:49.002Z,0
2018-02-12T01:57:54.533Z,0
2018-02-12T01:59:00.044Z,0
2018-02-12T02:00:05.255Z,0
2018-02-12T02:01:10.416Z,0
2018-02-12T02:02:15.879Z,0
2018-02-12T02:03:20.490Z,0
2018-02-12T02:04:25.957Z,0
2018-02-12T02:05:31.425Z,0
2018-02-12T02:06:37.036Z,0
2018-02-12T02:07:42.515Z,0
2018-02-12T02:08:47.719Z,0
2018-02-12T02:09:52.874Z,0
2018-02-12T02:10:58.359Z,0
2018-02-12T02:12:03.854Z,0
2018-02-12T02:13:09.155Z,0
2018-02-12T02:14:14.352Z,0
2018-02-12T02:15:19.535Z,0
2018-02-12T02:16:25.069Z,0
2018-02-12T02:17:30.542Z,0
2018-02-12T02:18:36.235Z,0
2018-02-12T02:19:41.723Z,0
2018-02-12T02:20:47.196Z,0
2018-02-12T02:21:52.779Z,0
2018-02-12T02:22:57.695Z,0
2018-02-12T02:24:03.164Z,0
2018-02-12T02:25:08.921Z,0
2018-02-12T02:26:14.400Z,0
2018-02-12T02:27:19.583Z,0
2018-02-12T02:28:25.295Z,0
2018-02-12T02:29:30.759Z,0
2018-02-12T02:30:36.458Z,0
2018-02-12T02:31:41.941Z,0
2018-02-12T02:32:47.143Z,0
2018-02-12T02:33:52.300Z,0
2018-02-12T02:34:57.788Z,0
2018-02-12T02:36:02.977Z,0
2018-02-12T02:37:08.435Z,0
2018-02-12T02:38:13.902Z,0
2018-02-12T02:39:19.076Z,0
2018-02-12T02:40:24.898Z,0
2018-02-12T02:41:30.371Z,0
2018-02-12T02:42:36.076Z,0
2018-02-12T02:43:41.552Z,0
2018-02-12T02:44:47.031Z,0
2018-02-12T02:45:52.736Z,0
2018-02-12T02:46:58.207Z,0
2018-02-12T02:48:03.689Z,0
2018-02-12T02:49:09.141Z,0
2018-02-12T02:50:14.627Z,0
2018-02-12T02:51:20.117Z,0
2018-02-12T02:52:40.734Z,0
2018-02-12T02:53:46.206Z,0
2018-02-12T02:54:52.135Z,0
2018-02-12T02:55:57.628Z,0
2018-02-12T02:57:03.102Z,0
2018-02-12T02:58:08.779Z,0
2018-02-12T02:59:14.275Z,0
2018-02-12T03:00:19.457Z,0
2018-02-12T03:01:24.362Z,0
2018-02-12T03:02:29.270Z,0
2018-02-12T03:03:34.796Z,0
2018-02-12T03:04:39.413Z,0
2018-02-12T03:05:44.320Z,0
2018-02-12T03:06:50.205Z,0
2018-02-12T03:07:55.115Z,0
2018-02-12T03:09:00.585Z,0
2018-02-12T03:10:06.092Z,0
2018-02-12T03:11:11.306Z,0
2018-02-12T03:12:16.492Z,0
2018-02-12T03:13:22.233Z,0
2018-02-12T03:14:27.410Z,0
2018-02-12T03:15:32.834Z,0
2018-02-12T03:16:38.303Z,0
2018-02-12T03:17:43.795Z,0
2018-02-12T03:18:49.420Z,0
2018-02-12T03:19:54.890Z,0
2018-02-12T03:21:00.367Z,0
2018-02-12T03:22:06.099Z,0
2018-02-12T03:23:11.278Z,0
2018-02-12T03:24:16.791Z,0
2018-02-12T03:25:22.646Z,0
2018-02-12T03:26:27.856Z,0
2018-02-12T03:27:33.685Z,0
2018-02-12T03:28:39.141Z,0
2018-02-12T03:29:44.619Z,0
2018-02-12T03:30:50.355Z,0
2018-02-12T03:31:55.813Z,0
2018-02-12T03:33:01.306Z,0
2018-02-12T03:34:07.023Z,0
2018-02-12T03:35:11.954Z,0
2018-02-12T03:36:16.551Z,0
2018-02-12T03:37:22.439Z,0
2018-02-12T03:38:27.613Z,0
2018-02-12T03:39:33.297Z,0
2018-02-12T03:40:38.501Z,0
2018-02-12T03:41:43.725Z,0
2018-02-12T03:42:49.170Z,0
2018-02-12T03:43:54.653Z,0
2018-02-12T03:45:00.106Z,0
2018-02-12T03:46:05.229Z,0
2018-02-12T03:47:10.135Z,0
2018-02-12T03:48:15.606Z,0
2018-02-12T03:49:21.026Z,0
2018-02-12T03:50:26.249Z,0
2018-02-12T03:51:32.213Z,0
2018-02-12T03:52:37.398Z,0
2018-02-12T03:53:42.878Z,0
2018-02-12T03:54:48.705Z,0
2018-02-12T03:55:53.943Z,0
2018-02-12T03:56:59.392Z,0
2018-02-12T03:58:04.600Z,0
2018-02-12T03:59:09.517Z,0
2018-02-12T04:00:14.162Z,0
2018-02-12T04:01:19.993Z,0
2018-02-12T04:02:25.194Z,0
2018-02-12T04:03:31.076Z,0
2018-02-12T04:04:36.237Z,0
2018-02-12T04:05:41.431Z,0
2018-02-12T04:06:46.699Z,0
2018-02-12T04:07:52.175Z,0
2018-02-12T04:08:57.109Z,0
2018-02-12T04:10:02.944Z,0
2018-02-12T04:11:08.418Z,0
2018-02-12T04:12:13.871Z,0
2018-02-12T04:13:19.020Z,0
2018-02-12T04:14:24.185Z,0
2018-02-12T04:15:30.205Z,0
2018-02-12T04:16:35.688Z,0
2018-02-12T04:17:40.885Z,0
2018-02-12T04:18:46.684Z,0
2018-02-12T04:19:52.171Z,0
2018-02-12T04:20:57.380Z,0
2018-02-12T04:22:03.014Z,0
2018-02-12T04:23:08.233Z,0
2018-02-12T04:24:13.424Z,0
2018-02-12T04:25:18.860Z,0
2018-02-12T04:26:24.410Z,0
2018-02-12T04:27:30.174Z,0
2018-02-12T04:28:35.357Z,0
2018-02-12T04:29:40.550Z,0
2018-02-12T04:30:46.459Z,0
2018-02-12T04:31:51.650Z,0
2018-02-12T04:32:57.127Z,0
2018-02-12T04:34:02.561Z,0
2018-02-12T04:35:07.739Z,0
2018-02-12T04:36:12.661Z,0
2018-02-12T04:37:18.369Z,0
2018-02-12T04:38:23.849Z,0
2018-02-12T04:39:29.664Z,0
2018-02-12T04:40:34.870Z,0
2018-02-12T04:41:40.045Z,0
2018-02-12T04:42:45.814Z,0
2018-02-12T04:43:51.047Z,0
2018-02-12T04:44:56.521Z,0
2018-02-12T04:46:02.243Z,0
2018-02-12T04:47:07.465Z,0
2018-02-12T04:48:12.370Z,0
2018-02-12T04:49:18.089Z,0
2018-02-12T04:50:23.336Z,0
2018-02-12T04:51:28.241Z,0
2018-02-12T04:52:33.428Z,0
2018-02-12T04:53:38.327Z,0
2018-02-12T04:54:43.827Z,0
2018-02-12T04:55:49.310Z,0
2018-02-12T04:56:54.799Z,0
2018-02-12T04:58:00.240Z,0
2018-02-12T04:59:05.716Z,0
2018-02-12T05:00:10.913Z,0
2018-02-12T05:01:16.158Z,0
2018-02-12T05:02:21.655Z,0
2018-02-12T05:03:27.944Z,0
2018-02-12T05:04:33.417Z,0
2018-02-12T05:05:38.313Z,0
2018-02-12T05:06:43.989Z,0
2018-02-12T05:07:48.907Z,0
2018-02-12T05:08:54.379Z,0
2018-02-12T05:09:59.724Z,0
2018-02-12T05:11:04.927Z,0
2018-02-12T05:12:10.391Z,0
2018-02-12T05:13:16.110Z,0
2018-02-12T05:14:21.585Z,0
2018-02-12T05:15:27.172Z,0
2018-02-12T05:16:32.667Z,0
2018-02-12T05:17:37.885Z,0
2018-02-12T05:18:44.182Z,0
2018-02-12T05:19:49.655Z,0
2018-02-12T05:20:54.848Z,0
2018-02-12T05:21:59.996Z,0
2018-02-12T05:23:05.482Z,0
2018-02-12T05:24:10.689Z,0
2018-02-12T05:25:16.232Z,0
2018-02-12T05:26:21.708Z,0
2018-02-12T05:27:27.656Z,0
2018-02-12T05:28:32.831Z,0
2018-02-12T05:29:38.027Z,0
2018-02-12T05:30:43.844Z,0
2018-02-12T05:31:49.033Z,0
2018-02-12T05:32:54.221Z,0
2018-02-12T05:33:59.724Z,0
2018-02-12T05:35:05.226Z,0
2018-02-12T05:36:09.544Z,0
2018-02-12T05:37:14.802Z,0
2018-02-12T05:38:19.991Z,0
2018-02-12T05:39:40.300Z,0
2018-02-12T05:40:45.779Z,0
2018-02-12T05:41:50.431Z,0
2018-02-12T05:42:56.190Z,0
2018-02-12T05:44:01.415Z,0
2018-02-12T05:45:06.872Z,0
2018-02-12T05:46:12.555Z,0
2018-02-12T05:47:18.025Z,0
2018-02-12T05:48:23.495Z,0
2018-02-12T05:49:29.627Z,0
2018-02-12T05:50:34.556Z,0
2018-02-12T05:51:40.534Z,0
2018-02-12T05:52:45.704Z,0
2018-02-12T05:53:50.328Z,0
2018-02-12T05:54:56.083Z,0
2018-02-12T05:56:01.534Z,0
2018-02-12T05:57:06.436Z,0
2018-02-12T05:58:12.170Z,0
2018-02-12T05:59:17.629Z,0
2018-02-12T06:00:23.134Z,0
2018-02-12T06:01:28.771Z,0
2018-02-12T06:02:34.227Z,0
2018-02-12T06:03:39.772Z,0
2018-02-12T06:04:44.935Z,0
2018-02-12T06:05:50.406Z,0
2018-02-12T06:06:56.146Z,0
2018-02-12T06:08:01.553Z,0
2018-02-12T06:09:07.022Z,0
2018-02-12T06:10:12.495Z,0
2018-02-12T06:11:17.694Z,0
2018-02-12T06:12:23.202Z,0
2018-02-12T06:13:28.994Z,0
2018-02-12T06:14:34.470Z,0
2018-02-12T06:15:40.225Z,0
2018-02-12T06:16:45.677Z,0
2018-02-12T06:17:50.882Z,0
2018-02-12T06:18:56.121Z,0
2018-02-12T06:20:01.334Z,0
2018-02-12T06:21:06.541Z,0
2018-02-12T06:22:12.003Z,0
2018-02-12T06:23:17.472Z,0
2018-02-12T06:24:22.940Z,0
2018-02-12T06:25:43.076Z,0
2018-02-12T06:26:47.956Z,0
2018-02-12T06:27:53.399Z,0
2018-02-12T06:28:58.867Z,0
2018-02-12T06:30:04.053Z,0
2018-02-12T06:31:09.320Z,0
2018-02-12T06:32:14.484Z,0
2018-02-12T06:33:19.677Z,0
2018-02-12T06:34:25.835Z,0
2018-02-12T06:35:31.029Z,0
2018-02-12T06:36:36.886Z,0
2018-02-12T06:37:42.085Z,0
2018-02-12T06:38:47.266Z,0
2018-02-12T06:39:52.840Z,0
2018-02-12T06:40:58.307Z,0
2018-02-12T06:42:03.503Z,0
2018-02-12T06:43:08.658Z,0
2018-02-12T06:44:14.125Z,0
2018-02-12T06:45:19.326Z,0
2018-02-12T06:46:24.628Z,0
2018-02-12T06:47:29.541Z,0
2018-02-12T06:48:35.188Z,0
2018-02-12T06:49:40.103Z,0
2018-02-12T06:50:45.580Z,0
2018-02-12T06:51:51.227Z,0
2018-02-12T06:52:56.711Z,0
2018-02-12T06:54:01.599Z,0
2018-02-12T06:55:06.750Z,0
2018-02-12T06:56:11.656Z,0
2018-02-12T06:57:17.122Z,0
2018-02-12T06:58:22.861Z,0
2018-02-12T06:59:28.043Z,0
2018-02-12T07:00:33.183Z,0
2018-02-12T07:01:38.377Z,0
2018-02-12T07:02:43.606Z,0
2018-02-12T07:03:49.430Z,0
2018-02-12T07:04:54.630Z,0
2018-02-12T07:06:00.106Z,0
2018-02-12T07:07:05.526Z,0
2018-02-12T07:08:10.725Z,0
2018-02-12T07:09:15.643Z,0
2018-02-12T07:10:21.360Z,0
2018-02-12T07:11:26.833Z,0
2018-02-12T07:12:32.474Z,0
2018-02-12T07:13:37.667Z,0
2018-02-12T07:14:43.182Z,0
2018-02-12T07:15:48.829Z,0
2018-02-12T07:16:54.330Z,0
2018-02-12T07:17:59.507Z,0
2018-02-12T07:19:04.934Z,0
2018-02-12T07:20:10.127Z,0
2018-02-12T07:21:15.801Z,0
2018-02-12T07:22:21.255Z,0
2018-02-12T07:23:26.707Z,332
2018-02-12T07:24:32.700Z,332
2018-02-12T07:25:38.162Z,303
2018-02-12T07:26:43.621Z,318
2018-02-12T07:27:49.071Z,313
2018-02-12T07:28:54.267Z,303
2018-02-12T07:29:59.468Z,332
2018-02-12T07:31:05.056Z,303
2018-02-12T07:32:10.248Z,318
2018-02-12T07:33:15.455Z,399
2018-02-12T07:34:21.198Z,414
2018-02-12T07:35:26.407Z,429
2018-02-12T07:36:31.862Z,414
2018-02-12T07:37:37.063Z,414
2018-02-12T07:38:42.524Z,414
2018-02-12T07:39:48.338Z,414
2018-02-12T07:40:53.846Z,399
2018-02-12T07:41:58.728Z,429
2018-02-12T07:43:04.550Z,399
2018-02-12T07:44:10.064Z,429
2018-02-12T07:45:15.547Z,429
2018-02-12T07:46:20.991Z,399
2018-02-12T07:47:26.205Z,399
2018-02-12T07:48:31.803Z,399
2018-02-12T07:49:37.008Z,429
2018-02-12T07:50:42.192Z,414
2018-02-12T07:51:47.691Z,414
2018-02-12T07:52:53.163Z,429
2018-02-12T07:53:58.625Z,414
2018-02-12T07:55:04.417Z,399
2018-02-12T07:56:09.605Z,399
2018-02-12T07:57:15.085Z,414
2018-02-12T07:58:20.806Z,429
2018-02-12T07:59:25.994Z,399
2018-02-12T08:00:31.439Z,429
2018-02-12T08:01:36.968Z,429
2018-02-12T08:02:42.162Z,399
2018-02-12T08:03:47.597Z,429
2018-02-12T08:04:53.093Z,414
2018-02-12T08:05:58.273Z,414
2018-02-12T08:07:04.014Z,399
2018-02-12T08:08:09.211Z,399
2018-02-12T08:09:14.728Z,414
2018-02-12T08:10:20.500Z,414
2018-02-12T08:11:25.385Z,414
2018-02-12T08:12:30.320Z,429
2018-02-12T08:13:35.522Z,414
2018-02-12T08:14:40.452Z,399
2018-02-12T08:15:46.174Z,429
2018-02-12T08:16:51.650Z,429
2018-02-12T08:17:57.149Z,399
2018-02-12T08:19:02.346Z,399
2018-02-12T08:20:07.550Z,429
2018-02-12T08:21:13.021Z,429
2018-02-12T08:22:18.511Z,414
2018-02-12T08:23:23.974Z,414
2018-02-12T08:24:29.844Z,429
2018-02-12T08:25:35.021Z,429
2018-02-12T08:26:40.850Z,429
2018-02-12T08:27:46.031Z,399
2018-02-12T08:28:51.492Z,429
2018-02-12T08:29:56.408Z,399
2018-02-12T08:31:01.840Z,414
2018-02-12T08:32:06.747Z,429
2018-02-12T08:33:12.243Z,444
2018-02-12T08:34:17.794Z,444
2018-02-12T08:35:22.999Z,444
2018-02-12T08:36:28.959Z,429
2018-02-12T08:37:34.170Z,429
2018-02-12T08:38:39.365Z,429
2018-02-12T08:39:45.116Z,429
2018-02-12T08:40:50.588Z,414
2018-02-12T08:41:55.784Z,424
2018-02-12T08:43:00.956Z,424
2018-02-12T08:44:05.891Z,424
2018-02-12T08:45:11.368Z,414
2018-02-12T08:46:16.018Z,414
2018-02-12T08:47:21.485Z,414
2018-02-12T08:48:27.156Z,429
2018-02-12T08:49:32.620Z,429
2018-02-12T08:50:38.097Z,444
2018-02-12T08:51:44.103Z,414
2018-02-12T08:52:49.564Z,444
2018-02-12T08:53:55.040Z,414
2018-02-12T08:55:00.753Z,444
2018-02-12T08:56:06.237Z,429
2018-02-12T08:57:11.703Z,424
2018-02-12T08:58:17.521Z,429
2018-02-12T08:59:22.705Z,444
2018-02-12T09:00:28.252Z,429
2018-02-12T09:01:33.713Z,439
2018-02-12T09:02:39.181Z,439
2018-02-12T09:03:44.905Z,439
2018-02-12T09:04:50.308Z,424
2018-02-12T09:05:55.214Z,424
2018-02-12T09:07:01.049Z,424
2018-02-12T09:08:05.943Z,439
2018-02-12T09:09:11.481Z,454
2018-02-12T09:10:17.081Z,439
2018-02-12T09:11:22.555Z,424
2018-02-12T09:12:28.424Z,424
2018-02-12T09:13:33.060Z,409
2018-02-12T09:14:38.540Z,439
2018-02-12T09:15:43.985Z,424
2018-02-12T09:16:49.458Z,424
2018-02-12T09:17:54.925Z,439
2018-02-12T09:19:00.086Z,439
2018-02-12T09:20:05.561Z,439
2018-02-12T09:21:10.193Z,439
2018-02-12T09:22:15.835Z,444
2018-02-12T09:23:21.296Z,439
2018-02-12T09:24:27.029Z,424
2018-02-12T09:25:32.498Z,424
2018-02-12T09:26:38.031Z,454
2018-02-12T09:27:43.470Z,439
2018-02-12T09:28:48.656Z,454
2018-02-12T09:29:54.138Z,454
2018-02-12T09:31:00.039Z,424
2018-02-12T09:32:04.651Z,424
2018-02-12T09:33:09.842Z,424
2018-02-12T09:34:15.063Z,424
2018-02-12T09:35:19.970Z,429
2018-02-12T09:36:25.710Z,429
2018-02-12T09:37:31.267Z,429
2018-02-12T09:38:36.727Z,429
2018-02-12T09:39:41.905Z,429
2018-02-12T09:40:46.821Z,414
2018-02-12T09:41:52.283Z,429
2018-02-12T09:42:58.004Z,444
2018-02-12T09:44:03.195Z,429
2018-02-12T09:45:08.093Z,444
2018-02-12T09:46:13.558Z,429
2018-02-12T09:47:18.205Z,444
2018-02-12T09:48:23.294Z,424
2018-02-12T09:49:29.349Z,429
2018-02-12T09:50:34.827Z,429
2018-02-12T09:51:39.959Z,444
2018-02-12T09:52:45.139Z,444
2018-02-12T09:53:50.353Z,414
2018-02-12T09:54:55.507Z,439
2018-02-12T09:56:00.964Z,439
2018-02-12T09:57:06.440Z,429
2018-02-12T09:58:11.967Z,424
2018-02-12T09:59:17.452Z,439
2018-02-12T10:00:22.952Z,439
2018-02-12T10:01:28.414Z,454
2018-02-12T10:02:33.886Z,469
2018-02-12T10:03:39.807Z,454
2018-02-12T10:04:45.359Z,469
2018-02-12T10:05:50.879Z,454
2018-02-12T10:06:56.320Z,439
2018-02-12T10:08:01.833Z,439
2018-02-12T10:09:06.738Z,439
2018-02-12T10:10:11.947Z,454
2018-02-12T10:11:17.427Z,454
2018-02-12T10:12:22.906Z,454
2018-02-12T10:13:28.378Z,454
2018-02-12T10:14:33.883Z,454
2018-02-12T10:15:39.340Z,449
2018-02-12T10:16:44.293Z,464
2018-02-12T10:17:48.926Z,449
2018-02-12T10:18:54.290Z,464
2018-02-12T10:20:00.092Z,479
2018-02-12T10:21:05.274Z,449
2018-02-12T10:22:10.718Z,449
2018-02-12T10:23:15.915Z,464
2018-02-12T10:24:21.382Z,494
2018-02-12T10:25:27.050Z,464
2018-02-12T10:26:32.701Z,479
2018-02-12T10:27:37.937Z,449
2018-02-12T10:28:42.818Z,449
2018-02-12T10:29:48.278Z,464
2018-02-12T10:30:53.584Z,474
2018-02-12T10:31:59.061Z,464
2018-02-12T10:33:04.557Z,474
2018-02-12T10:34:09.765Z,464
2018-02-12T10:35:15.368Z,464
2018-02-12T10:36:20.836Z,464
2018-02-12T10:37:40.668Z,474
2018-02-12T10:38:45.973Z,474
2018-02-12T10:39:51.686Z,489
2018-02-12T10:40:57.164Z,479
2018-02-12T10:42:02.664Z,449
2018-02-12T10:43:07.826Z,464
2018-02-12T10:44:13.024Z,434
2018-02-12T10:45:17.895Z,449
2018-02-12T10:46:23.165Z,449
2018-02-12T10:47:28.566Z,464
2018-02-12T10:48:34.259Z,489
2018-02-12T10:49:39.200Z,474
2018-02-12T10:50:44.682Z,489
2018-02-12T10:51:49.960Z,504
2018-02-12T10:52:55.446Z,504
2018-02-12T10:54:00.646Z,459
2018-02-12T10:55:06.268Z,504
2018-02-12T10:56:11.778Z,484
2018-02-12T10:57:17.271Z,529
2018-02-12T10:58:23.096Z,499
2018-02-12T10:59:28.282Z,514
2018-02-12T11:00:33.449Z,499
2018-02-12T11:01:38.086Z,474
2018-02-12T11:02:43.633Z,504
2018-02-12T11:03:49.681Z,504
2018-02-12T11:04:55.390Z,489
2018-02-12T11:06:00.585Z,504
2018-02-12T11:07:05.515Z,474
2018-02-12T11:08:11.186Z,474
2018-02-12T11:09:16.670Z,499
2018-02-12T11:10:21.862Z,520
2018-02-12T11:11:27.023Z,489
2018-02-12T11:12:32.469Z,459
2018-02-12T11:13:37.128Z,489
2018-02-12T11:14:42.337Z,504
2018-02-12T11:15:48.156Z,504
2018-02-12T11:16:53.606Z,459
2018-02-12T11:17:59.112Z,464
2018-02-12T11:19:05.051Z,464
2018-02-12T11:20:10.261Z,449
2018-02-12T11:21:16.099Z,454
2018-02-12T11:22:21.491Z,469
2018-02-12T11:23:26.983Z,449
2018-02-12T11:24:32.721Z,449
2018-02-12T11:25:38.174Z,55
2018-02-12T11:26:43.664Z,55
2018-02-12T11:27:49.436Z,79
2018-02-12T11:28:54.629Z,72
2018-02-12T11:29:59.823Z,72
2018-02-12T11:31:05.264Z,72
2018-02-12T11:32:09.902Z,55
2018-02-12T11:33:15.087Z,72
2018-02-12T11:34:20.912Z,72
2018-02-12T11:35:26.327Z,72
2018-02-12T11:36:32.214Z,88
2018-02-12T11:37:37.120Z,88
2018-02-12T11:38:42.604Z,79
2018-02-12T11:39:47.783Z,103
2018-02-12T11:40:53.246Z,95
2018-02-12T11:41:58.917Z,79
2018-02-12T11:43:04.744Z,95
2018-02-12T11:44:10.602Z,79
2018-02-12T11:45:15.701Z,79
2018-02-12T11:46:20.837Z,99
2018-02-12T11:47:26.019Z,119
2018-02-12T11:48:31.661Z,86
2018-02-12T11:49:37.134Z,141
2018-02-12T11:50:42.336Z,68
2018-02-12T11:51:47.772Z,86
2018-02-12T11:52:52.662Z,95
2018-02-12T11:53:58.116Z,95
2018-02-12T11:55:03.992Z,127
2018-02-12T11:56:09.181Z,95
2018-02-12T11:57:14.660Z,95
2018-02-12T11:58:19.952Z,514
2018-02-12T11:59:25.028Z,504
2018-02-12T12:00:29.962Z,520
2018-02-12T12:01:35.150Z,509
2018-02-12T12:02:40.617Z,534
2018-02-12T12:03:46.078Z,524
2018-02-12T12:04:51.287Z,504
2018-02-12T12:05:56.217Z,489
2018-02-12T12:07:01.776Z,479
2018-02-12T12:08:06.688Z,494
2018-02-12T12:09:11.299Z,494
2018-02-12T12:10:16.647Z,539
2018-02-12T12:11:22.178Z,514
2018-02-12T12:12:29.348Z,539
2018-02-12T12:13:34.550Z,524
2018-02-12T12:14:40.118Z,539
2018-02-12T12:15:45.549Z,524
2018-02-12T12:16:51.030Z,539
2018-02-12T12:17:56.228Z,504
2018-02-12T12:19:01.958Z,529
2018-02-12T12:20:07.456Z,524
2018-02-12T12:21:12.917Z,534
2018-02-12T12:22:18.961Z,534
2018-02-12T12:23:24.432Z,518
2018-02-12T12:24:30.381Z,549
2018-02-12T12:25:35.852Z,549
2018-02-12T12:26:41.062Z,564
2018-02-12T12:27:46.790Z,524
2018-02-12T12:28:51.971Z,549
2018-02-12T12:29:56.799Z,549
2018-02-12T12:31:01.945Z,484
2018-02-12T12:32:07.137Z,514
2018-02-12T12:33:12.383Z,499
2018-02-12T12:34:17.799Z,529
2018-02-12T12:35:23.066Z,524
2018-02-12T12:36:28.281Z,544
2018-02-12T12:37:33.489Z,539
2018-02-12T12:38:38.821Z,539
2018-02-12T12:39:44.550Z,539
2018-02-12T12:40:49.733Z,524
2018-02-12T12:41:54.923Z,539
2018-02-12T12:43:00.070Z,499
2018-02-12T12:44:05.523Z,464
2018-02-12T12:45:10.437Z,479
2018-02-12T12:46:15.626Z,489
2018-02-12T12:47:23.164Z,514
2018-02-12T12:48:29.102Z,469
2018-02-12T12:49:34.562Z,469
2018-02-12T12:50:39.778Z,464
2018-02-12T12:51:45.638Z,524
2018-02-12T12:52:50.882Z,514
2018-02-12T12:53:56.348Z,499
2018-02-12T12:55:02.069Z,529
2018-02-12T12:56:07.539Z,524
2018-02-12T12:57:12.735Z,524
2018-02-12T12:58:18.456Z,524
2018-02-12T12:59:23.688Z,524
2018-02-12T13:00:29.122Z,534
2018-02-12T13:01:34.324Z,549
2018-02-12T13:02:38.953Z,534
2018-02-12T13:03:43.974Z,499
2018-02-12T13:04:49.425Z,559
2018-02-12T13:05:55.091Z,559
2018-02-12T13:07:00.826Z,559
2018-02-12T13:08:06.007Z,543
2018-02-12T13:09:10.926Z,574
2018-02-12T13:10:16.404Z,574
2018-02-12T13:11:21.891Z,543
2018-02-12T13:12:27.913Z,564
2018-02-12T13:13:33.161Z,549
2018-02-12T13:14:38.659Z,518
2018-02-12T13:15:44.484Z,518
2018-02-12T13:16:49.698Z,518
2018-02-12T13:17:55.176Z,524
2018-02-12T13:19:01.072Z,539
2018-02-12T13:20:06.248Z,474
2018-02-12T13:21:11.721Z,499
2018-02-12T13:22:17.040Z,504
2018-02-12T13:23:22.252Z,489
2018-02-12T13:24:27.866Z,499
2018-02-12T13:25:33.070Z,499
2018-02-12T13:26:38.253Z,534
2018-02-12T13:27:43.980Z,524
2018-02-12T13:28:49.466Z,534
2018-02-12T13:29:54.363Z,534
2018-02-12T13:30:59.650Z,518
2018-02-12T13:32:04.844Z,549
2018-02-12T13:33:09.741Z,549
2018-02-12T13:34:14.920Z,539
2018-02-12T13:35:19.551Z,518
2018-02-12T13:36:39.639Z,543
2018-02-12T13:37:44.828Z,543
2018-02-12T13:38:50.088Z,543
2018-02-12T13:39:55.876Z,528
2018-02-12T13:41:01.073Z,559
2018-02-12T13:42:06.006Z,543
2018-02-12T13:43:11.738Z,543
2018-02-12T13:44:17.205Z,543
2018-02-12T13:45:22.932Z,549
2018-02-12T13:46:28.389Z,549
2018-02-12T13:47:33.752Z,543
2018-02-12T13:48:38.479Z,559
2018-02-12T13:49:43.877Z,559
2018-02-12T13:50:49.059Z,543
2018-02-12T13:51:54.844Z,543
2018-02-12T13:53:00.304Z,534
2018-02-12T13:54:05.801Z,543
2018-02-12T13:55:11.514Z,549
2018-02-12T13:56:16.730Z,534
2018-02-12T13:57:22.207Z,534
2018-02-12T13:58:27.786Z,543
2018-02-12T13:59:32.678Z,543
2018-02-12T14:00:38.393Z,538
2018-02-12T14:01:43.869Z,569
2018-02-12T14:02:48.825Z,578
2018-02-12T14:03:54.286Z,584
2018-02-12T14:04:59.220Z,538
2018-02-12T14:06:04.460Z,553
2018-02-12T14:07:09.776Z,569
2018-02-12T14:08:15.277Z,543
2018-02-12T14:09:20.742Z,559
2018-02-12T14:10:26.478Z,543
2018-02-12T14:11:31.959Z,528
2018-02-12T14:12:37.119Z,543
2018-02-12T14:13:42.039Z,543
2018-02-12T14:14:47.512Z,528
2018-02-12T14:15:53.213Z,534
2018-02-12T14:16:58.607Z,534
2018-02-12T14:18:03.239Z,518
2018-02-12T14:19:08.411Z,524
2018-02-12T14:20:13.886Z,524
2018-02-12T14:21:18.842Z,518
2018-02-12T14:22:24.033Z,514
2018-02-12T14:23:29.203Z,489
2018-02-12T14:24:34.838Z,489
2018-02-12T14:25:40.081Z,489
2018-02-12T14:26:45.004Z,474
2018-02-12T14:27:50.187Z,494
2018-02-12T14:28:54.798Z,494
2018-02-12T14:30:00.029Z,464
2018-02-12T14:31:05.533Z,479
2018-02-12T14:32:10.444Z,479
2018-02-12T14:33:15.547Z,479
2018-02-12T14:34:21.426Z,479
2018-02-12T14:35:26.336Z,464
2018-02-12T14:36:32.276Z,479
2018-02-12T14:37:37.455Z,484
2018-02-12T14:38:42.923Z,484
2018-02-12T14:39:48.488Z,529
2018-02-12T14:40:53.976Z,529
2018-02-12T14:41:59.166Z,514
2018-02-12T14:43:04.914Z,529
2018-02-12T14:44:10.108Z,514
2018-02-12T14:45:15.582Z,509
2018-02-12T14:46:21.012Z,509
2018-02-12T14:47:26.372Z,493
2018-02-12T14:48:31.922Z,524
2018-02-12T14:49:37.435Z,499
2018-02-12T14:50:42.912Z,489
2018-02-12T14:51:48.711Z,489
2018-02-12T14:52:54.168Z,484
2018-02-12T14:53:59.379Z,509
2018-02-12T14:55:05.349Z,518
2018-02-12T14:56:10.010Z,518
2018-02-12T14:57:14.962Z,484
2018-02-12T14:58:20.395Z,524
2018-02-12T14:59:25.312Z,524
2018-02-12T15:00:30.594Z,493
2018-02-12T15:01:36.199Z,493
2018-02-12T15:02:41.665Z,509
2018-02-12T15:03:47.413Z,514
2018-02-12T15:04:52.610Z,489
2018-02-12T15:05:57.780Z,474
2018-02-12T15:07:03.532Z,509
2018-02-12T15:08:08.765Z,514
2018-02-12T15:09:14.297Z,514
2018-02-12T15:10:20.124Z,484
2018-02-12T15:11:25.300Z,489
2018-02-12T15:12:30.760Z,468
2018-02-12T15:13:35.964Z,489
2018-02-12T15:14:40.860Z,489
2018-02-12T15:15:45.706Z,474
2018-02-12T15:16:50.616Z,474
2018-02-12T15:17:55.803Z,499
2018-02-12T15:19:01.230Z,459
2018-02-12T15:20:06.428Z,489
2018-02-12T15:21:11.050Z,474
2018-02-12T15:22:16.203Z,464
2018-02-12T15:23:21.644Z,459
2018-02-12T15:24:27.749Z,464
2018-02-12T15:25:32.942Z,464
2018-02-12T15:26:38.163Z,449
2018-02-12T15:27:43.816Z,464
2018-02-12T15:28:49.007Z,474
2018-02-12T15:29:53.812Z,489
2018-02-12T15:30:58.994Z,499
2018-02-12T15:32:04.472Z,489
2018-02-12T15:33:09.645Z,499
2018-02-12T15:34:15.125Z,499